createdAt,value
2022-08-07T00:01:44.219Z,102518.81
2022-08-07T00:04:24.466Z,102502.69
2022-08-07T00:06:54.011Z,102500.22
2022-08-07T00:09:35.427Z,102490.94
2022-08-07T00:12:06.023Z,102497.81
2022-08-07T00:14:38.462Z,102492.41
2022-08-07T00:17:13.453Z,102498.03
2022-08-07T00:20:01.498Z,102501.69
2022-08-07T00:22:35.426Z,102481.59
2022-08-07T00:25:15.854Z,102493.31
2022-08-07T00:27:52.796Z,102491.91
2022-08-07T00:30:27.296Z,102472.38
2022-08-07T00:32:59.650Z,102486.38
2022-08-07T00:35:30.492Z,102496.63
2022-08-07T00:38:00.421Z,102480.88
2022-08-07T00:40:39.044Z,102481.50
2022-08-07T00:43:58.671Z,102495.91
2022-08-07T00:46:02.015Z,102492.00
2022-08-07T00:48:32.667Z,102475.56
2022-08-07T00:51:03.156Z,102496.03
2022-08-07T00:53:39.046Z,102482.31
2022-08-07T00:56:21.086Z,102486.81
2022-08-07T00:58:50.485Z,102484.75
2022-08-07T01:01:21.463Z,102481.09
2022-08-07T01:03:55.954Z,102482.44
2022-08-07T01:06:30.701Z,102469.03
2022-08-07T01:09:02.803Z,102474.34
2022-08-07T01:12:10.025Z,102473.84
2022-08-07T01:14:28.380Z,102474.97
2022-08-07T01:17:00.618Z,102473.94
2022-08-07T01:19:35.087Z,102478.84
2022-08-07T01:22:16.237Z,102459.28
2022-08-07T01:24:53.497Z,102472.72
2022-08-07T01:27:24.802Z,102459.91
2022-08-07T01:30:03.737Z,102463.41
2022-08-07T01:32:33.424Z,102463.09
2022-08-07T01:35:04.746Z,102465.38
2022-08-07T01:37:35.682Z,102462.66
2022-08-07T01:40:14.969Z,102464.19
2022-08-07T01:42:58.507Z,102464.91
2022-08-07T01:45:37.112Z,102455.28
2022-08-07T01:48:20.459Z,102461.94
2022-08-07T01:51:24.282Z,102455.91
2022-08-07T01:54:08.529Z,102463.47
2022-08-07T01:56:50.437Z,102453.84
2022-08-07T01:59:30.804Z,102451.72
2022-08-07T02:02:10.609Z,102445.09
2022-08-07T02:04:55.874Z,102449.78
2022-08-07T02:07:36.228Z,102445.56
2022-08-07T02:10:27.379Z,102425.84
2022-08-07T02:13:02.523Z,102449.06
2022-08-07T02:15:41.345Z,102453.44
2022-08-07T02:18:13.877Z,102439.53
2022-08-07T02:20:48.542Z,102444.84
2022-08-07T02:23:25.063Z,102451.06
2022-08-07T02:26:31.043Z,102437.06
2022-08-07T02:28:49.659Z,102430.34
2022-08-07T02:31:28.831Z,102436.88
2022-08-07T02:34:02.895Z,102431.47
2022-08-07T02:36:38.177Z,102430.66
2022-08-07T02:39:43.267Z,102384.50
2022-08-07T02:42:09.848Z,102419.50
2022-08-07T02:44:49.952Z,102408.44
2022-08-07T02:47:25.287Z,102425.22
2022-08-07T02:50:03.946Z,102421.44
2022-08-07T02:52:41.570Z,102421.81
2022-08-07T02:55:28.801Z,102427.47
2022-08-07T02:58:15.745Z,102416.09
2022-08-07T03:00:46.814Z,102439.06
2022-08-07T03:03:22.598Z,102423.09
2022-08-07T03:05:57.463Z,102428.31
2022-08-07T03:08:29.477Z,102436.00
2022-08-07T03:11:02.564Z,102425.06
2022-08-07T03:13:49.774Z,102417.16
2022-08-07T03:16:23.074Z,102426.78
2022-08-07T03:18:59.451Z,102400.50
2022-08-07T03:21:32.970Z,102424.22
2022-08-07T03:24:18.027Z,102422.16
2022-08-07T03:26:58.986Z,102426.56
2022-08-07T03:29:44.676Z,102431.25
2022-08-07T03:32:34.961Z,102432.06
2022-08-07T03:35:17.362Z,102420.22
2022-08-07T03:37:55.975Z,102421.66
2022-08-07T03:40:36.571Z,102418.25
2022-08-07T03:43:14.569Z,102434.69
2022-08-07T03:45:51.034Z,102434.19
2022-08-07T03:48:25.927Z,102438.66
2022-08-07T03:50:57.892Z,102423.09
2022-08-07T03:54:01.859Z,102434.81
2022-08-07T03:56:33.572Z,102439.50
2022-08-07T03:59:13.444Z,102443.66
2022-08-07T04:01:54.686Z,102440.06
2022-08-07T04:04:26.506Z,102429.75
2022-08-07T04:07:01.050Z,102447.22
2022-08-07T04:09:45.324Z,102430.25
2022-08-07T04:12:28.460Z,102440.59
2022-08-07T04:15:00.797Z,102426.41
2022-08-07T04:18:58.298Z,102429.97
2022-08-07T04:20:25.838Z,102409.25
2022-08-07T04:23:01.426Z,102410.78
2022-08-07T04:25:39.303Z,102417.88
2022-08-07T04:28:13.312Z,102428.38
2022-08-07T04:30:56.765Z,102416.22
2022-08-07T04:33:32.118Z,102417.88
2022-08-07T04:36:09.118Z,102418.72
2022-08-07T04:38:40.698Z,102407.69
2022-08-07T04:41:18.150Z,102416.53
2022-08-07T04:44:11.722Z,102406.41
2022-08-07T04:47:04.173Z,102409.16
2022-08-07T04:49:57.887Z,102405.44
2022-08-07T04:52:51.415Z,102401.75
2022-08-07T04:58:11.902Z,102392.44
2022-08-07T04:59:07.712Z,102410.66
2022-08-07T05:01:36.723Z,102413.72
2022-08-07T05:04:17.946Z,102415.34
2022-08-07T05:07:20.466Z,102362.59
2022-08-07T05:10:00.985Z,102398.38
2022-08-07T05:12:51.331Z,102397.81
2022-08-07T05:15:31.896Z,102344.81
2022-08-07T05:18:10.357Z,102395.41
2022-08-07T05:20:49.150Z,102412.84
2022-08-07T05:23:29.828Z,102407.59
2022-08-07T05:26:13.869Z,102401.06
2022-08-07T05:28:56.084Z,102418.25
2022-08-07T05:31:37.804Z,102416.41
2022-08-07T05:34:15.755Z,102402.69
2022-08-07T05:36:52.817Z,102418.47
2022-08-07T05:40:16.750Z,102421.59
2022-08-07T05:42:40.092Z,102423.38
2022-08-07T05:45:46.122Z,102423.09
2022-08-07T05:48:07.856Z,102417.28
2022-08-07T05:50:42.902Z,102406.84
2022-08-07T05:54:14.151Z,102428.25
2022-08-07T05:56:10.089Z,102412.13
2022-08-07T05:58:52.483Z,102419.22
2022-08-07T06:01:34.859Z,102415.84
2022-08-07T06:04:09.648Z,102418.41
2022-08-07T06:06:46.442Z,102421.28
2022-08-07T06:09:20.121Z,102422.66
2022-08-07T06:11:52.453Z,102421.72
2022-08-07T06:14:28.804Z,102420.50
2022-08-07T06:17:07.058Z,102419.31
2022-08-07T06:19:47.796Z,102417.13
2022-08-07T06:22:38.496Z,102420.72
2022-08-07T06:25:27.058Z,102424.63
2022-08-07T06:28:07.586Z,102421.97
2022-08-07T06:30:42.711Z,102414.81
2022-08-07T06:33:20.594Z,102423.63
2022-08-07T06:36:12.123Z,102427.28
2022-08-07T06:38:58.816Z,102406.75
2022-08-07T06:42:01.252Z,102425.47
2022-08-07T06:45:17.960Z,102408.41
2022-08-07T06:47:58.779Z,102423.03
2022-08-07T06:50:47.838Z,102420.25
2022-08-07T06:55:27.153Z,102427.91
2022-08-07T06:56:16.241Z,102432.63
2022-08-07T07:00:12.530Z,102425.88
2022-08-07T07:01:48.809Z,102418.81
2022-08-07T07:04:28.091Z,102421.75
2022-08-07T07:07:10.771Z,102426.94
2022-08-07T07:09:50.724Z,102425.19
2022-08-07T07:12:36.511Z,102416.78
2022-08-07T07:15:24.238Z,102405.13
2022-08-07T07:18:05.644Z,102407.88
2022-08-07T07:20:42.924Z,102419.19
2022-08-07T07:24:08.377Z,102424.50
2022-08-07T07:26:33.869Z,102426.88
2022-08-07T07:29:56.955Z,102428.72
2022-08-07T07:31:57.974Z,102423.94
2022-08-07T07:34:33.208Z,102415.38
2022-08-07T07:37:21.635Z,102433.31
2022-08-07T07:40:01.406Z,102427.28
2022-08-07T07:42:33.449Z,102425.25
2022-08-07T07:45:05.607Z,102430.28
2022-08-07T07:47:51.970Z,102416.59
2022-08-07T07:50:33.160Z,102432.59
2022-08-07T07:53:13.686Z,102431.47
2022-08-07T07:55:57.870Z,102435.53
2022-08-07T07:58:36.988Z,102434.38
2022-08-07T08:02:03.684Z,102433.34
2022-08-07T08:04:11.529Z,102438.34
2022-08-07T08:06:50.863Z,102420.69
2022-08-07T08:09:29.120Z,102430.16
2022-08-07T08:12:05.204Z,102425.66
2022-08-07T08:14:37.235Z,102412.84
2022-08-07T08:17:32.483Z,102415.28
2022-08-07T08:20:17.733Z,102423.38
2022-08-07T08:23:14.239Z,102412.97
2022-08-07T08:26:07.198Z,102426.09
2022-08-07T08:28:44.860Z,102429.03
2022-08-07T08:31:59.010Z,102423.47
2022-08-07T08:34:27.133Z,102418.97
2022-08-07T08:36:59.893Z,102420.78
2022-08-07T08:39:39.339Z,102423.34
2022-08-07T08:42:30.161Z,102416.63
2022-08-07T08:45:15.554Z,102413.75
2022-08-07T08:47:55.470Z,102411.91
2022-08-07T08:50:39.476Z,102410.97
2022-08-07T08:53:21.940Z,102413.34
2022-08-07T08:56:03.898Z,102410.63
2022-08-07T08:58:44.466Z,102407.59
2022-08-07T09:01:21.866Z,102407.97
2022-08-07T09:04:02.844Z,102414.28
2022-08-07T09:06:50.685Z,102420.72
2022-08-07T09:09:44.739Z,102399.84
2022-08-07T09:12:39.095Z,102403.22
2022-08-07T09:16:22.881Z,102413.03
2022-08-07T09:18:58.515Z,102410.94
2022-08-07T09:22:10.155Z,102396.69
2022-08-07T09:24:59.687Z,102408.19
2022-08-07T09:28:00.515Z,102403.63
2022-08-07T09:30:46.441Z,102415.78
2022-08-07T09:33:57.072Z,102409.16
2022-08-07T09:36:43.107Z,102422.78
2022-08-07T09:39:54.016Z,102391.69
2022-08-07T09:42:41.907Z,102413.69
2022-08-07T09:47:49.843Z,102410.84
2022-08-07T09:48:29.626Z,102410.19
2022-08-07T09:51:14.782Z,102414.72
2022-08-07T09:54:04.986Z,102416.25
2022-08-07T09:57:04.295Z,102409.91
2022-08-07T10:00:07.940Z,102400.44
2022-08-07T10:04:05.537Z,102408.91
2022-08-07T10:06:55.603Z,102402.63
2022-08-07T10:10:01.062Z,102395.28
2022-08-07T10:12:59.687Z,102393.75
2022-08-07T10:15:50.245Z,102396.16
2022-08-07T10:18:44.499Z,102391.91
2022-08-07T10:22:16.332Z,102397.81
2022-08-07T10:25:22.569Z,102381.75
2022-08-07T10:28:24.340Z,102387.66
2022-08-07T10:31:12.094Z,102383.94
2022-08-07T10:34:06.218Z,102403.09
2022-08-07T10:37:12.480Z,102395.16
2022-08-07T10:40:05.641Z,102395.88
2022-08-07T10:42:43.982Z,102389.50
2022-08-07T10:45:48.030Z,102384.03
2022-08-07T10:48:41.554Z,102390.56
2022-08-07T10:51:39.712Z,102402.31
2022-08-07T10:54:18.474Z,102390.78
2022-08-07T10:57:07.982Z,102389.94
2022-08-07T11:00:08.839Z,102382.41
2022-08-07T11:02:49.354Z,102387.56
2022-08-07T11:05:50.624Z,102384.66
2022-08-07T11:08:33.549Z,102390.81
2022-08-07T11:11:10.306Z,102397.72
2022-08-07T11:14:46.197Z,102394.31
2022-08-07T11:16:49.346Z,102393.25
2022-08-07T11:19:30.666Z,102386.19
2022-08-07T11:22:26.572Z,102388.66
2022-08-07T11:25:10.476Z,102383.41
2022-08-07T11:28:02.585Z,102379.25
2022-08-07T11:30:54.391Z,102377.75
2022-08-07T11:33:54.235Z,102369.06
2022-08-07T11:36:49.658Z,102380.00
2022-08-07T11:40:00.023Z,102372.63
2022-08-07T11:42:46.236Z,102336.00
2022-08-07T11:45:40.673Z,102381.13
2022-08-07T11:48:44.160Z,102379.97
2022-08-07T11:51:46.816Z,102377.28
2022-08-07T11:54:46.506Z,102368.56
2022-08-07T11:58:00.640Z,102378.03
2022-08-07T12:00:39.399Z,102370.47
2022-08-07T12:03:50.824Z,102376.88
2022-08-07T12:06:51.781Z,102385.75
2022-08-07T12:09:37.621Z,102370.44
2022-08-07T12:12:12.035Z,102378.72
2022-08-07T12:14:55.352Z,102374.63
2022-08-07T12:17:37.430Z,102360.34
2022-08-07T12:20:30.103Z,102369.44
2022-08-07T12:23:37.293Z,102376.72
2022-08-07T12:26:28.569Z,102368.09
2022-08-07T12:29:11.302Z,102372.16
2022-08-07T12:31:53.097Z,102349.41
2022-08-07T12:34:36.060Z,102360.16
2022-08-07T12:37:08.119Z,102370.47
2022-08-07T12:39:51.617Z,102351.13
2022-08-07T12:42:32.062Z,102361.84
2022-08-07T12:45:10.394Z,102349.94
2022-08-07T12:47:54.896Z,102355.34
2022-08-07T12:50:48.985Z,102358.28
2022-08-07T12:53:30.255Z,102349.41
2022-08-07T12:56:30.466Z,102354.72
2022-08-07T12:59:08.108Z,102350.91
2022-08-07T13:01:53.851Z,102343.69
2022-08-07T13:04:49.084Z,102346.94
2022-08-07T13:08:13.920Z,102339.66
2022-08-07T13:11:01.158Z,102347.22
2022-08-07T13:13:50.300Z,102341.25
2022-08-07T13:16:30.840Z,102335.69
2022-08-07T13:19:21.896Z,102332.88
2022-08-07T13:22:19.779Z,102346.97
2022-08-07T13:25:03.012Z,102335.69
2022-08-07T13:28:11.458Z,102340.84
2022-08-07T13:30:40.162Z,102330.97
2022-08-07T13:34:30.213Z,102337.72
2022-08-07T13:36:33.396Z,102328.75
2022-08-07T13:39:48.967Z,102341.88
2022-08-07T13:42:10.568Z,102340.91
2022-08-07T13:44:43.308Z,102334.19
2022-08-07T13:48:05.906Z,102348.16
2022-08-07T13:50:32.541Z,102340.47
2022-08-07T13:53:06.715Z,102338.72
2022-08-07T13:55:54.252Z,102329.44
2022-08-07T13:58:50.401Z,102326.19
2022-08-07T14:01:29.247Z,102321.34
2022-08-07T14:04:11.231Z,102328.94
2022-08-07T14:06:50.313Z,102325.00
2022-08-07T14:10:02.013Z,102303.59
2022-08-07T14:12:28.128Z,102313.22
2022-08-07T14:15:06.267Z,102316.06
2022-08-07T14:18:24.530Z,102315.09
2022-08-07T14:20:43.014Z,102308.06
2022-08-07T14:23:31.340Z,102312.66
2022-08-07T14:26:30.516Z,102317.03
2022-08-07T14:30:02.996Z,102317.00
2022-08-07T14:31:57.829Z,102308.31
2022-08-07T14:34:33.117Z,102319.13
2022-08-07T14:37:05.430Z,102308.22
2022-08-07T14:40:15.466Z,102301.44
2022-08-07T14:43:00.864Z,102309.06
2022-08-07T14:45:46.367Z,102298.63
2022-08-07T14:48:27.294Z,102294.19
2022-08-07T14:51:01.559Z,102282.50
2022-08-07T14:56:33.045Z,102290.97
2022-08-07T14:59:13.734Z,102302.63
2022-08-07T15:01:58.330Z,102293.78
2022-08-07T15:04:29.038Z,102303.47
2022-08-07T15:07:00.983Z,102297.84
2022-08-07T15:09:57.974Z,102283.34
2022-08-07T15:12:30.446Z,102286.94
2022-08-07T15:15:08.382Z,102278.88
2022-08-07T15:17:55.559Z,102269.59
2022-08-07T15:20:55.236Z,102269.88
2022-08-07T15:25:16.379Z,102271.47
2022-08-07T15:26:33.366Z,102270.53
2022-08-07T15:30:06.419Z,102266.03
2022-08-07T15:32:04.918Z,102268.38
2022-08-07T15:38:17.583Z,102256.34
2022-08-07T15:43:53.476Z,102250.03
2022-08-07T15:46:31.685Z,102251.78
2022-08-07T15:52:02.991Z,102253.34
2022-08-07T15:54:39.452Z,102247.31
2022-08-07T15:57:39.229Z,102232.47
2022-08-07T16:00:06.842Z,102236.88
2022-08-07T16:02:49.214Z,102241.44
2022-08-07T16:05:23.087Z,102249.91
2022-08-07T16:08:33.590Z,102229.72
2022-08-07T16:11:28.986Z,102244.84
2022-08-07T16:14:09.001Z,102243.28
2022-08-07T16:18:00.712Z,102247.03
2022-08-07T16:20:34.662Z,102241.91
2022-08-07T16:23:55.331Z,102239.41
2022-08-07T16:26:58.788Z,102227.28
2022-08-07T16:30:10.784Z,102228.00
2022-08-07T16:32:54.393Z,102214.06
2022-08-07T16:35:52.316Z,102220.53
2022-08-07T16:39:01.232Z,102226.56
2022-08-07T16:42:16.979Z,102231.69
2022-08-07T16:45:19.152Z,102224.50
2022-08-07T16:48:58.430Z,102215.28
2022-08-07T16:51:57.626Z,102216.00
2022-08-07T16:54:55.824Z,102189.66
2022-08-07T16:58:02.095Z,102213.44
2022-08-07T17:00:42.957Z,102212.09
2022-08-07T17:03:58.106Z,102206.31
2022-08-07T17:06:41.079Z,102215.34
2022-08-07T17:10:06.594Z,102206.41
2022-08-07T17:12:34.330Z,102214.09
2022-08-07T17:15:20.137Z,102203.28
2022-08-07T17:17:58.787Z,102214.63
2022-08-07T17:20:37.394Z,102209.06
2022-08-07T17:23:32.103Z,102207.41
2022-08-07T17:26:24.248Z,102217.53
2022-08-07T17:29:18.346Z,102217.34
2022-08-07T17:32:31.287Z,102210.97
2022-08-07T17:35:50.302Z,102206.72
2022-08-07T17:38:32.258Z,102209.41
2022-08-07T17:42:01.140Z,102204.22
2022-08-07T17:44:33.252Z,102207.50
2022-08-07T17:47:17.092Z,102213.91
2022-08-07T17:50:04.731Z,102195.81
2022-08-07T17:52:44.495Z,102216.03
2022-08-07T17:56:00.364Z,102208.03
2022-08-07T17:58:30.530Z,102208.03
2022-08-07T18:01:20.572Z,102207.69
2022-08-07T18:04:16.313Z,102201.63
2022-08-07T18:07:19.653Z,102197.63
2022-08-07T18:10:06.863Z,102190.91
2022-08-07T18:13:09.939Z,102199.63
2022-08-07T18:16:08.618Z,102204.00
2022-08-07T18:21:04.141Z,102208.13
2022-08-07T18:21:58.352Z,102200.88
2022-08-07T18:24:36.788Z,102214.53
2022-08-07T18:27:38.339Z,102208.75
2022-08-07T18:30:33.067Z,102212.81
2022-08-07T18:33:39.067Z,102209.34
2022-08-07T18:36:41.045Z,102216.34
2022-08-07T18:40:07.919Z,102219.31
2022-08-07T18:42:27.482Z,102219.94
2022-08-07T18:45:40.041Z,102214.53
2022-08-07T18:48:09.446Z,102222.50
2022-08-07T18:51:09.205Z,102215.38
2022-08-07T18:54:05.174Z,102220.84
2022-08-07T18:57:30.751Z,102226.16
2022-08-07T19:00:32.484Z,102228.84
2022-08-07T19:03:12.267Z,102227.50
2022-08-07T19:06:03.371Z,102231.06
2022-08-07T19:09:09.613Z,102238.22
2022-08-07T19:12:26.686Z,102241.22
2022-08-07T19:16:03.020Z,102250.28
2022-08-07T19:18:18.349Z,102247.47
2022-08-07T19:21:47.884Z,102253.72
2022-08-07T19:24:32.327Z,102253.66
2022-08-07T19:28:29.919Z,102250.19
2022-08-07T19:31:03.754Z,102253.34
2022-08-07T19:32:59.726Z,102270.03
2022-08-07T19:35:33.755Z,102255.09
2022-08-07T19:38:15.120Z,102257.06
2022-08-07T19:40:51.485Z,102263.47
2022-08-07T19:43:50.029Z,102260.69
2022-08-07T19:46:17.767Z,102273.13
2022-08-07T19:48:53.492Z,102274.66
2022-08-07T19:51:52.364Z,102260.88
2022-08-07T19:54:31.665Z,102283.34
2022-08-07T19:58:02.927Z,102281.25
2022-08-07T20:00:10.170Z,102271.06
2022-08-07T20:02:52.113Z,102278.19
2022-08-07T20:05:27.992Z,102286.41
2022-08-07T20:08:02.542Z,102293.44
2022-08-07T20:10:54.483Z,102301.00
2022-08-07T20:13:36.063Z,102298.50
2022-08-07T20:16:32.383Z,102293.19
2022-08-07T20:19:01.350Z,102305.44
2022-08-07T20:21:46.736Z,102300.38
2022-08-07T20:24:28.698Z,102310.75
2022-08-07T20:27:03.089Z,102320.91
2022-08-07T20:29:49.050Z,102322.34
2022-08-07T20:32:40.127Z,102319.38
2022-08-07T20:35:15.815Z,102324.84
2022-08-07T20:37:55.641Z,102312.44
2022-08-07T20:40:34.316Z,102308.69
2022-08-07T20:43:09.631Z,102310.81
2022-08-07T20:46:26.125Z,102314.50
2022-08-07T20:49:54.319Z,102327.75
2022-08-07T20:51:40.279Z,102334.22
2022-08-07T20:54:15.327Z,102331.44
2022-08-07T20:57:04.617Z,102319.09
2022-08-07T21:00:07.502Z,102327.22
2022-08-07T21:02:54.098Z,102321.38
2022-08-07T21:05:51.342Z,102308.84
2022-08-07T21:08:37.002Z,102305.69
2022-08-07T21:11:14.469Z,102313.09
2022-08-07T21:14:16.665Z,102310.28
2022-08-07T21:16:56.960Z,102317.94
2022-08-07T21:19:51.039Z,102323.53
2022-08-07T21:22:33.862Z,102309.03
2022-08-07T21:25:21.585Z,102316.69
2022-08-07T21:28:13.543Z,102318.22
2022-08-07T21:30:58.035Z,102320.09
2022-08-07T21:33:41.340Z,102325.69
2022-08-07T21:36:32.343Z,102324.78
2022-08-07T21:39:45.293Z,102324.88
2022-08-07T21:42:42.902Z,102327.31
2022-08-07T21:46:07.806Z,102325.59
2022-08-07T21:48:33.520Z,102317.75
2022-08-07T21:51:19.481Z,102321.75
2022-08-07T21:54:02.335Z,102335.50
2022-08-07T21:56:49.134Z,102318.72
2022-08-07T22:00:02.754Z,102339.31
2022-08-07T22:02:35.823Z,102333.66
2022-08-07T22:05:08.635Z,102329.78
2022-08-07T22:07:58.762Z,102334.09
2022-08-07T22:10:37.370Z,102326.19
2022-08-07T22:13:16.020Z,102338.84
2022-08-07T22:16:42.500Z,102339.91
2022-08-07T22:18:54.569Z,102340.59
2022-08-07T22:22:01.935Z,102340.50
2022-08-07T22:24:41.987Z,102340.72
2022-08-07T22:27:20.906Z,102330.75
2022-08-07T22:30:13.647Z,102327.97
2022-08-07T22:33:02.632Z,102331.22
2022-08-07T22:35:43.182Z,102337.50
2022-08-07T22:38:29.858Z,102336.94
2022-08-07T22:41:09.060Z,102336.00
2022-08-07T22:43:45.050Z,102335.19
2022-08-07T22:47:02.924Z,102332.53
2022-08-07T22:49:56.530Z,102339.72
2022-08-07T22:52:49.603Z,102343.09
2022-08-07T22:55:47.888Z,102352.00
2022-08-07T22:58:54.097Z,102349.41
2022-08-07T23:01:58.973Z,102356.94
2022-08-07T23:06:07.013Z,102354.13
2022-08-07T23:08:37.321Z,102337.72
2022-08-07T23:11:45.820Z,102361.16
2022-08-07T23:14:34.646Z,102345.34
2022-08-07T23:17:41.672Z,102350.72
2022-08-07T23:20:53.501Z,102368.00
2022-08-07T23:24:07.025Z,102373.28
2022-08-07T23:27:08.252Z,102344.84
2022-08-07T23:30:35.817Z,102369.19
2022-08-07T23:34:33.727Z,102365.19
2022-08-07T23:37:19.493Z,102371.09
2022-08-07T23:39:55.643Z,102357.53
2022-08-07T23:42:35.357Z,102369.75
2022-08-07T23:45:33.447Z,102331.69
2022-08-07T23:48:43.477Z,102370.00
2022-08-07T23:53:00.637Z,102351.13
2022-08-07T23:54:44.555Z,102376.75
2022-08-07T23:57:30.514Z,102369.69
